createdAt,value
2023-02-25T00:00:58.119Z,939.11
2023-02-25T00:02:04.282Z,939.09
2023-02-25T00:02:58.163Z,939.11
2023-02-25T00:03:58.077Z,939.05
2023-02-25T00:04:58.095Z,939.01
2023-02-25T00:05:58.055Z,938.80
2023-02-25T00:06:58.038Z,938.90
2023-02-25T00:07:58.061Z,938.81
2023-02-25T00:08:58.013Z,938.80
2023-02-25T00:09:58.012Z,938.99
2023-02-25T00:10:57.975Z,939.01
2023-02-25T00:11:58.014Z,939.09
2023-02-25T00:13:12.148Z,939.20
2023-02-25T00:13:57.959Z,939.20
2023-02-25T00:14:57.932Z,939.20
2023-02-25T00:15:57.944Z,939.21
2023-02-25T00:16:58.154Z,939.19
2023-02-25T00:17:57.894Z,939.16
2023-02-25T00:18:57.904Z,939.16
2023-02-25T00:19:57.885Z,939.17
2023-02-25T00:20:57.879Z,939.20
2023-02-25T00:21:57.849Z,939.21
2023-02-25T00:22:57.832Z,939.19
2023-02-25T00:24:04.501Z,939.17
2023-02-25T00:24:57.816Z,939.06
2023-02-25T00:25:57.792Z,939.11
2023-02-25T00:26:57.809Z,939.11
2023-02-25T00:27:57.768Z,939.13
2023-02-25T00:28:57.795Z,939.10
2023-02-25T00:29:57.727Z,939.08
2023-02-25T00:30:57.888Z,939.03
2023-02-25T00:31:57.971Z,939.03
2023-02-25T00:32:57.769Z,939.01
2023-02-25T00:33:57.707Z,939.00
2023-02-25T00:34:57.693Z,939.00
2023-02-25T00:35:57.673Z,939.01
2023-02-25T00:36:57.754Z,939.08
2023-02-25T00:38:13.674Z,939.01
2023-02-25T00:38:57.627Z,938.98
2023-02-25T00:39:57.612Z,938.94
2023-02-25T00:40:57.604Z,938.93
2023-02-25T00:41:57.612Z,938.94
2023-02-25T00:42:57.564Z,939.02
2023-02-25T00:43:57.564Z,939.07
2023-02-25T00:44:57.533Z,939.16
2023-02-25T00:45:57.543Z,939.24
2023-02-25T00:46:57.558Z,939.29
2023-02-25T00:47:57.519Z,939.40
2023-02-25T00:48:57.491Z,939.50
2023-02-25T00:49:57.477Z,939.59
2023-02-25T00:50:57.454Z,939.57
2023-02-25T00:51:59.862Z,939.56
2023-02-25T00:52:57.459Z,939.53
2023-02-25T00:53:57.440Z,939.53
2023-02-25T00:54:57.415Z,939.54
2023-02-25T00:55:57.400Z,939.59
2023-02-25T00:56:57.393Z,939.57
2023-02-25T00:57:57.376Z,939.49
2023-02-25T00:58:57.391Z,939.51
2023-02-25T00:59:57.337Z,939.47
2023-02-25T01:00:57.322Z,939.44
2023-02-25T01:01:57.393Z,939.49
2023-02-25T01:02:57.372Z,939.51
2023-02-25T01:03:57.370Z,939.57
2023-02-25T01:04:57.284Z,939.49
2023-02-25T01:05:57.263Z,939.49
2023-02-25T01:06:57.256Z,939.47
2023-02-25T01:07:57.241Z,939.48
2023-02-25T01:08:57.265Z,939.52
2023-02-25T01:09:57.239Z,939.67
2023-02-25T01:10:57.180Z,939.75
2023-02-25T01:11:57.184Z,939.81
2023-02-25T01:12:57.161Z,939.90
2023-02-25T01:13:57.251Z,939.93
2023-02-25T01:14:57.152Z,940.01
2023-02-25T01:15:57.229Z,940.01
2023-02-25T01:16:57.133Z,939.99
2023-02-25T01:17:57.102Z,940.04
2023-02-25T01:18:57.092Z,940.02
2023-02-25T01:19:57.106Z,939.98
2023-02-25T01:20:57.060Z,939.91
2023-02-25T01:21:57.070Z,939.89
2023-02-25T01:22:57.019Z,939.87
2023-02-25T01:23:57.021Z,939.86
2023-02-25T01:24:57.016Z,939.87
2023-02-25T01:25:57.020Z,939.94
2023-02-25T01:26:56.989Z,939.95
2023-02-25T01:27:56.993Z,940.02
2023-02-25T01:28:56.982Z,940.05
2023-02-25T01:29:56.971Z,940.12
2023-02-25T01:30:57.080Z,940.18
2023-02-25T01:31:57.136Z,940.16
2023-02-25T01:32:56.955Z,940.18
2023-02-25T01:33:56.890Z,940.26
2023-02-25T01:34:56.870Z,940.21
2023-02-25T01:35:56.883Z,940.26
2023-02-25T01:36:56.853Z,940.13
2023-02-25T01:37:56.831Z,940.15
2023-02-25T01:38:56.831Z,940.18
2023-02-25T01:39:56.804Z,940.18
2023-02-25T01:40:56.829Z,940.18
2023-02-25T01:41:56.830Z,940.15
2023-02-25T01:42:56.788Z,940.27
2023-02-25T01:43:56.762Z,940.28
2023-02-25T01:44:56.766Z,940.32
2023-02-25T01:45:56.736Z,940.36
2023-02-25T01:46:56.814Z,940.31
2023-02-25T01:47:56.721Z,940.35
2023-02-25T01:48:56.693Z,940.39
2023-02-25T01:49:56.683Z,940.39
2023-02-25T01:50:56.665Z,940.45
2023-02-25T01:51:56.697Z,940.43
2023-02-25T01:52:56.650Z,940.45
2023-02-25T01:53:56.618Z,940.45
2023-02-25T01:54:56.614Z,940.42
2023-02-25T01:55:56.618Z,940.39
2023-02-25T01:56:56.610Z,940.36
2023-02-25T01:57:56.567Z,940.34
2023-02-25T01:58:56.568Z,940.37
2023-02-25T01:59:56.544Z,940.37
2023-02-25T02:00:56.579Z,940.38
2023-02-25T02:01:56.539Z,940.38
2023-02-25T02:02:56.653Z,940.47
2023-02-25T02:03:56.499Z,940.46
2023-02-25T02:04:56.495Z,940.45
2023-02-25T02:05:56.476Z,940.42
2023-02-25T02:06:56.485Z,940.43
2023-02-25T02:07:56.446Z,940.44
2023-02-25T02:08:56.436Z,940.48
2023-02-25T02:09:56.512Z,940.50
2023-02-25T02:10:56.413Z,940.59
2023-02-25T02:11:56.388Z,940.58
2023-02-25T02:12:56.403Z,940.56
2023-02-25T02:13:56.364Z,940.56
2023-02-25T02:14:56.352Z,940.54
2023-02-25T02:15:56.348Z,940.55
2023-02-25T02:16:56.331Z,940.61
2023-02-25T02:17:56.335Z,940.62
2023-02-25T02:18:56.302Z,940.58
2023-02-25T02:19:56.286Z,940.54
2023-02-25T02:20:56.272Z,940.55
2023-02-25T02:21:56.301Z,940.53
2023-02-25T02:22:56.249Z,940.52
2023-02-25T02:23:56.247Z,940.46
2023-02-25T02:24:56.222Z,940.49
2023-02-25T02:25:56.206Z,940.51
2023-02-25T02:26:56.189Z,940.55
2023-02-25T02:27:56.236Z,940.57
2023-02-25T02:28:56.181Z,940.58
2023-02-25T02:29:56.155Z,940.56
2023-02-25T02:30:56.205Z,940.59
2023-02-25T02:31:56.268Z,940.69
2023-02-25T02:32:56.175Z,940.70
2023-02-25T02:33:56.115Z,940.67
2023-02-25T02:34:56.083Z,940.75
2023-02-25T02:35:56.110Z,940.76
2023-02-25T02:36:56.105Z,940.77
2023-02-25T02:37:56.050Z,940.71
2023-02-25T02:38:56.058Z,940.69
2023-02-25T02:39:56.036Z,940.69
2023-02-25T02:40:56.025Z,940.65
2023-02-25T02:41:56.031Z,940.64
2023-02-25T02:42:56.009Z,940.61
2023-02-25T02:43:55.962Z,940.59
2023-02-25T02:44:55.972Z,940.65
2023-02-25T02:45:55.983Z,940.72
2023-02-25T02:46:55.950Z,940.72
2023-02-25T02:47:55.994Z,940.83
2023-02-25T02:48:55.901Z,940.83
2023-02-25T02:49:55.895Z,940.84
2023-02-25T02:50:55.890Z,940.85
2023-02-25T02:51:55.876Z,940.88
2023-02-25T02:52:55.897Z,940.86
2023-02-25T02:53:55.852Z,940.91
2023-02-25T02:54:55.964Z,940.94
2023-02-25T02:55:55.809Z,940.97
2023-02-25T02:56:55.805Z,940.93
2023-02-25T02:57:55.813Z,940.88
2023-02-25T02:58:55.814Z,940.83
2023-02-25T02:59:55.778Z,940.83
2023-02-25T03:00:55.916Z,940.84
2023-02-25T03:01:55.736Z,940.79
2023-02-25T03:02:55.713Z,940.82
2023-02-25T03:03:55.770Z,940.83
2023-02-25T03:04:55.692Z,940.80
2023-02-25T03:05:55.708Z,940.76
2023-02-25T03:06:55.671Z,940.78
2023-02-25T03:07:55.644Z,940.72
2023-02-25T03:08:55.628Z,940.71
2023-02-25T03:09:55.658Z,940.66
2023-02-25T03:10:55.619Z,940.68
2023-02-25T03:11:55.602Z,940.69
2023-02-25T03:12:55.578Z,940.75
2023-02-25T03:13:55.593Z,940.78
2023-02-25T03:14:55.572Z,940.74
2023-02-25T03:15:55.561Z,940.76
2023-02-25T03:16:55.571Z,940.79
2023-02-25T03:17:55.517Z,940.78
2023-02-25T03:18:55.538Z,940.83
2023-02-25T03:19:55.511Z,940.80
2023-02-25T03:20:55.488Z,940.81
2023-02-25T03:21:55.464Z,940.86
2023-02-25T03:22:55.468Z,940.90
2023-02-25T03:23:55.444Z,940.92
2023-02-25T03:24:55.462Z,940.95
2023-02-25T03:25:55.421Z,940.98
2023-02-25T03:26:55.404Z,940.92
2023-02-25T03:27:55.396Z,940.86
2023-02-25T03:28:55.393Z,940.87
2023-02-25T03:29:55.382Z,940.83
2023-02-25T03:30:55.433Z,940.86
2023-02-25T03:31:55.467Z,940.86
2023-02-25T03:32:55.399Z,940.85
2023-02-25T03:33:55.326Z,940.87
2023-02-25T03:34:55.335Z,940.83
2023-02-25T03:35:55.291Z,940.92
2023-02-25T03:36:55.314Z,940.87
2023-02-25T03:37:55.260Z,940.81
2023-02-25T03:38:55.244Z,940.80
2023-02-25T03:39:55.237Z,940.78
2023-02-25T03:40:55.315Z,940.73
2023-02-25T03:41:55.248Z,940.73
2023-02-25T03:42:55.208Z,940.74
2023-02-25T03:43:55.196Z,940.72
2023-02-25T03:44:55.175Z,940.75
2023-02-25T03:45:55.212Z,940.78
2023-02-25T03:46:55.165Z,940.80
2023-02-25T03:47:55.138Z,940.80
2023-02-25T03:48:55.117Z,940.81
2023-02-25T03:49:55.116Z,940.88
2023-02-25T03:50:55.107Z,940.90
2023-02-25T03:51:55.109Z,940.91
2023-02-25T03:52:55.070Z,940.89
2023-02-25T03:53:55.083Z,940.91
2023-02-25T03:54:55.052Z,940.91
2023-02-25T03:55:55.111Z,940.93
2023-02-25T03:56:55.024Z,940.91
2023-02-25T03:57:55.009Z,940.90
2023-02-25T03:58:55.008Z,940.98
2023-02-25T03:59:55.005Z,941.00
2023-02-25T04:00:55.002Z,941.04
2023-02-25T04:01:54.952Z,941.04
2023-02-25T04:02:54.968Z,941.07
2023-02-25T04:03:54.973Z,941.10
2023-02-25T04:04:54.950Z,941.13
2023-02-25T04:05:54.901Z,941.12
2023-02-25T04:06:54.881Z,941.09
2023-02-25T04:07:54.894Z,941.09
2023-02-25T04:08:54.864Z,941.09
2023-02-25T04:09:54.867Z,941.02
2023-02-25T04:10:54.827Z,941.05
2023-02-25T04:11:54.828Z,941.09
2023-02-25T04:12:54.816Z,941.06
2023-02-25T04:13:54.801Z,941.12
2023-02-25T04:14:54.785Z,941.07
2023-02-25T04:15:54.770Z,941.02
2023-02-25T04:16:54.747Z,941.01
2023-02-25T04:17:54.730Z,941.01
2023-02-25T04:18:54.753Z,941.03
2023-02-25T04:19:54.708Z,940.99
2023-02-25T04:20:54.726Z,940.96
2023-02-25T04:21:54.679Z,940.96
2023-02-25T04:22:54.665Z,940.94
2023-02-25T04:23:54.674Z,941.00
2023-02-25T04:24:54.656Z,941.01
2023-02-25T04:25:54.629Z,941.04
2023-02-25T04:26:54.610Z,941.01
2023-02-25T04:27:54.638Z,941.03
2023-02-25T04:28:54.608Z,940.98
2023-02-25T04:29:54.613Z,940.96
2023-02-25T04:30:54.689Z,940.95
2023-02-25T04:31:54.673Z,940.98
2023-02-25T04:32:54.581Z,941.02
2023-02-25T04:33:54.525Z,941.02
2023-02-25T04:34:54.510Z,941.04
2023-02-25T04:35:54.527Z,941.08
2023-02-25T04:36:54.496Z,941.06
2023-02-25T04:37:54.479Z,941.05
2023-02-25T04:38:54.471Z,941.10
2023-02-25T04:39:54.458Z,941.13
2023-02-25T04:40:54.468Z,941.07
2023-02-25T04:41:54.426Z,940.96
2023-02-25T04:42:54.410Z,940.90
2023-02-25T04:43:54.396Z,940.98
2023-02-25T04:44:54.378Z,941.07
2023-02-25T04:45:54.410Z,941.12
2023-02-25T04:46:54.425Z,941.12
2023-02-25T04:47:54.345Z,941.16
2023-02-25T04:48:54.371Z,941.03
2023-02-25T04:49:54.328Z,941.06
2023-02-25T04:50:54.324Z,941.09
2023-02-25T04:51:54.308Z,941.07
2023-02-25T04:52:54.278Z,941.10
2023-02-25T04:53:54.293Z,941.06
2023-02-25T04:54:54.251Z,941.04
2023-02-25T04:55:54.234Z,941.08
2023-02-25T04:56:54.246Z,941.11
2023-02-25T04:57:54.212Z,941.03
2023-02-25T04:58:54.225Z,941.03
2023-02-25T04:59:54.191Z,941.03
2023-02-25T05:00:54.194Z,941.00
2023-02-25T05:01:54.214Z,941.06
2023-02-25T05:02:54.184Z,941.06
2023-02-25T05:03:54.138Z,941.07
2023-02-25T05:04:54.219Z,941.00
2023-02-25T05:05:54.122Z,941.00
2023-02-25T05:06:54.095Z,941.04
2023-02-25T05:07:54.114Z,940.97
2023-02-25T05:08:54.080Z,940.97
2023-02-25T05:09:54.050Z,940.99
2023-02-25T05:10:54.053Z,941.01
2023-02-25T05:11:54.039Z,940.91
2023-02-25T05:12:54.049Z,940.93
2023-02-25T05:13:54.039Z,940.93
2023-02-25T05:14:53.993Z,941.15
2023-02-25T05:15:54.050Z,941.11
2023-02-25T05:16:53.970Z,941.07
2023-02-25T05:17:53.956Z,941.06
2023-02-25T05:18:53.953Z,941.05
2023-02-25T05:19:53.942Z,941.13
2023-02-25T05:20:53.936Z,941.19
2023-02-25T05:21:53.926Z,941.14
2023-02-25T05:22:53.897Z,941.08
2023-02-25T05:23:53.903Z,941.11
2023-02-25T05:24:53.860Z,941.18
2023-02-25T05:25:53.880Z,941.19
2023-02-25T05:26:53.848Z,941.16
2023-02-25T05:27:53.826Z,941.04
2023-02-25T05:28:53.830Z,941.12
2023-02-25T05:29:53.855Z,941.23
2023-02-25T05:30:53.836Z,941.24
2023-02-25T05:31:54.003Z,941.20
2023-02-25T05:32:53.900Z,941.21
2023-02-25T05:33:53.755Z,941.18
2023-02-25T05:34:53.747Z,941.18
2023-02-25T05:35:53.740Z,941.20
2023-02-25T05:36:53.734Z,941.14
2023-02-25T05:37:53.702Z,941.14
2023-02-25T05:38:53.686Z,941.14
2023-02-25T05:39:53.682Z,941.17
2023-02-25T05:40:53.661Z,941.23
2023-02-25T05:41:53.676Z,941.32
2023-02-25T05:42:53.645Z,941.31
2023-02-25T05:43:53.647Z,941.31
2023-02-25T05:44:53.627Z,941.38
2023-02-25T05:45:53.597Z,941.38
2023-02-25T05:46:53.711Z,941.37
2023-02-25T05:47:53.569Z,941.38
2023-02-25T05:48:53.543Z,941.37
2023-02-25T05:49:53.537Z,941.38
2023-02-25T05:50:53.557Z,941.37
2023-02-25T05:51:53.545Z,941.39
2023-02-25T05:52:53.524Z,941.36
2023-02-25T05:53:53.504Z,941.35
2023-02-25T05:54:53.466Z,941.30
2023-02-25T05:55:53.466Z,941.25
2023-02-25T05:56:53.478Z,941.20
2023-02-25T05:57:53.436Z,941.22
2023-02-25T05:58:53.429Z,941.17
2023-02-25T05:59:53.397Z,941.24
2023-02-25T06:00:53.406Z,941.25
2023-02-25T06:01:53.440Z,941.27
2023-02-25T06:02:53.404Z,941.29
2023-02-25T06:03:53.424Z,941.33
2023-02-25T06:04:53.346Z,941.37
2023-02-25T06:05:53.333Z,941.43
2023-02-25T06:06:53.325Z,941.39
2023-02-25T06:07:53.328Z,941.42
2023-02-25T06:08:53.281Z,941.37
2023-02-25T06:09:53.280Z,941.42
2023-02-25T06:10:53.290Z,941.41
2023-02-25T06:11:53.268Z,941.42
2023-02-25T06:12:53.234Z,941.46
2023-02-25T06:13:53.249Z,941.43
2023-02-25T06:14:53.236Z,941.48
2023-02-25T06:15:53.207Z,941.56
2023-02-25T06:16:53.272Z,941.55
2023-02-25T06:17:53.188Z,941.55
2023-02-25T06:18:53.159Z,941.57
2023-02-25T06:19:53.171Z,941.54
2023-02-25T06:20:53.143Z,941.52
2023-02-25T06:21:53.129Z,941.57
2023-02-25T06:22:53.102Z,941.59
2023-02-25T06:23:53.116Z,941.53
2023-02-25T06:24:53.118Z,941.54
2023-02-25T06:25:53.063Z,941.71
2023-02-25T06:26:53.079Z,941.71
2023-02-25T06:27:53.053Z,941.75
2023-02-25T06:28:53.053Z,941.67
2023-02-25T06:29:53.010Z,941.66
2023-02-25T06:30:53.111Z,941.67
2023-02-25T06:31:53.085Z,941.70
2023-02-25T06:32:53.117Z,941.67
2023-02-25T06:33:52.956Z,941.70
2023-02-25T06:34:52.949Z,941.73
2023-02-25T06:35:52.944Z,941.75
2023-02-25T06:36:52.951Z,941.76
2023-02-25T06:37:52.917Z,941.76
2023-02-25T06:38:52.913Z,941.72
2023-02-25T06:39:52.881Z,941.78
2023-02-25T06:40:52.854Z,941.78
2023-02-25T06:41:52.887Z,941.78
2023-02-25T06:42:52.850Z,941.72
2023-02-25T06:43:52.857Z,941.78
2023-02-25T06:44:52.865Z,941.80
2023-02-25T06:45:52.840Z,941.80
2023-02-25T06:46:52.795Z,941.81
2023-02-25T06:47:52.784Z,941.90
2023-02-25T06:48:52.774Z,941.92
2023-02-25T06:49:52.788Z,941.85
2023-02-25T06:50:52.798Z,941.82
2023-02-25T06:51:52.751Z,941.80
2023-02-25T06:52:52.710Z,941.82
2023-02-25T06:53:52.720Z,941.80
2023-02-25T06:54:52.693Z,941.81
2023-02-25T06:55:52.692Z,941.84
2023-02-25T06:56:52.685Z,941.90
2023-02-25T06:57:52.641Z,941.90
2023-02-25T06:58:52.781Z,941.91
2023-02-25T06:59:52.628Z,941.96
2023-02-25T07:00:52.676Z,941.99
2023-02-25T07:01:52.633Z,942.04
2023-02-25T07:02:52.625Z,941.99
2023-02-25T07:03:52.582Z,941.97
2023-02-25T07:04:52.615Z,941.95
2023-02-25T07:05:52.565Z,942.00
2023-02-25T07:06:52.550Z,942.08
2023-02-25T07:07:52.527Z,942.06
2023-02-25T07:08:52.504Z,942.05
2023-02-25T07:09:52.505Z,942.07
2023-02-25T07:10:52.487Z,942.08
2023-02-25T07:11:52.500Z,942.05
2023-02-25T07:12:52.466Z,942.02
2023-02-25T07:13:52.465Z,941.96
2023-02-25T07:14:52.418Z,942.00
2023-02-25T07:15:52.430Z,942.10
2023-02-25T07:16:52.406Z,942.12
2023-02-25T07:17:52.431Z,942.11
2023-02-25T07:18:52.378Z,942.07
2023-02-25T07:19:52.364Z,942.09
2023-02-25T07:20:52.336Z,942.11
2023-02-25T07:21:52.330Z,942.06
2023-02-25T07:22:52.358Z,942.04
2023-02-25T07:23:52.311Z,942.15
2023-02-25T07:24:52.405Z,942.12
2023-02-25T07:25:52.295Z,942.09
2023-02-25T07:26:52.272Z,942.15
2023-02-25T07:27:52.297Z,942.17
2023-02-25T07:28:52.254Z,942.09
2023-02-25T07:29:52.243Z,942.07
2023-02-25T07:30:52.378Z,942.01
2023-02-25T07:31:52.475Z,942.02
2023-02-25T07:32:52.332Z,942.04
2023-02-25T07:33:52.167Z,942.09
2023-02-25T07:34:52.173Z,942.08
2023-02-25T07:35:52.173Z,942.10
2023-02-25T07:36:52.138Z,942.12
2023-02-25T07:37:52.140Z,942.11
2023-02-25T07:38:52.119Z,942.12
2023-02-25T07:39:52.120Z,942.18
2023-02-25T07:40:52.111Z,942.18
2023-02-25T07:41:52.093Z,942.16
2023-02-25T07:42:52.061Z,942.13
2023-02-25T07:43:52.042Z,942.07
2023-02-25T07:44:52.066Z,942.14
2023-02-25T07:45:52.111Z,942.20
2023-02-25T07:46:52.023Z,942.18
2023-02-25T07:47:52.006Z,942.15
2023-02-25T07:48:51.991Z,942.16
2023-02-25T07:49:52.006Z,942.17
2023-02-25T07:50:52.016Z,942.15
2023-02-25T07:51:51.960Z,942.14
2023-02-25T07:52:51.940Z,942.13
2023-02-25T07:53:51.939Z,942.11
2023-02-25T07:54:51.913Z,942.20
2023-02-25T07:55:52.034Z,942.26
2023-02-25T07:56:51.891Z,942.26
2023-02-25T07:57:51.870Z,942.18
2023-02-25T07:58:51.892Z,942.14
2023-02-25T07:59:51.848Z,942.12
2023-02-25T08:00:51.865Z,942.12
2023-02-25T08:01:51.890Z,942.18
2023-02-25T08:02:51.873Z,942.01
2023-02-25T08:03:51.833Z,942.07
2023-02-25T08:04:51.928Z,941.98
2023-02-25T08:05:51.791Z,941.97
2023-02-25T08:06:51.774Z,941.98
2023-02-25T08:07:51.771Z,942.07
2023-02-25T08:08:51.726Z,942.04
2023-02-25T08:09:51.728Z,941.99
2023-02-25T08:10:51.708Z,941.89
2023-02-25T08:11:51.720Z,941.82
2023-02-25T08:12:51.681Z,941.80
2023-02-25T08:13:51.686Z,941.86
2023-02-25T08:14:51.660Z,941.88
2023-02-25T08:15:51.773Z,941.85
2023-02-25T08:16:51.643Z,941.84
2023-02-25T08:17:51.615Z,941.89
2023-02-25T08:18:51.588Z,941.89
2023-02-25T08:19:51.585Z,941.99
2023-02-25T08:20:51.572Z,941.98
2023-02-25T08:21:51.600Z,941.97
2023-02-25T08:22:51.561Z,941.95
2023-02-25T08:23:51.567Z,941.97
2023-02-25T08:24:51.521Z,941.99
2023-02-25T08:25:51.504Z,941.97
2023-02-25T08:26:51.507Z,941.87
2023-02-25T08:27:51.486Z,941.94
2023-02-25T08:28:51.562Z,942.04
2023-02-25T08:29:51.491Z,941.94
2023-02-25T08:30:51.565Z,941.97
2023-02-25T08:31:51.814Z,942.02
2023-02-25T08:32:51.459Z,941.98
2023-02-25T08:33:51.450Z,941.95
2023-02-25T08:34:51.390Z,941.92
2023-02-25T08:35:51.378Z,941.91
2023-02-25T08:36:51.376Z,941.93
2023-02-25T08:37:51.368Z,941.93
2023-02-25T08:38:51.367Z,941.92
2023-02-25T08:39:51.354Z,941.98
2023-02-25T08:40:51.321Z,941.98
2023-02-25T08:41:51.302Z,941.96
2023-02-25T08:42:51.293Z,941.94
2023-02-25T08:43:51.308Z,941.87
2023-02-25T08:44:51.349Z,941.83
2023-02-25T08:45:51.253Z,941.93
2023-02-25T08:46:51.316Z,941.95
2023-02-25T08:47:51.228Z,942.01
2023-02-25T08:48:51.221Z,941.95
2023-02-25T08:49:51.197Z,941.84
2023-02-25T08:50:51.217Z,941.83
2023-02-25T08:51:51.174Z,941.89
2023-02-25T08:52:51.144Z,941.95
2023-02-25T08:53:51.147Z,941.95
2023-02-25T08:54:51.136Z,941.91
2023-02-25T08:55:51.161Z,941.85
2023-02-25T08:56:51.129Z,941.87
2023-02-25T08:57:51.110Z,941.87
2023-02-25T08:58:51.080Z,941.89
2023-02-25T08:59:51.118Z,941.92
2023-02-25T09:00:51.076Z,941.94
2023-02-25T09:01:51.064Z,941.96
2023-02-25T09:02:51.014Z,941.96
2023-02-25T09:03:51.038Z,941.89
2023-02-25T09:04:51.063Z,941.84
2023-02-25T09:05:50.980Z,941.86
2023-02-25T09:06:51.014Z,941.82
2023-02-25T09:07:50.962Z,941.82
2023-02-25T09:08:50.937Z,941.84
2023-02-25T09:09:50.957Z,941.83
2023-02-25T09:10:51.203Z,941.85
2023-02-25T09:11:50.923Z,941.89
2023-02-25T09:12:50.892Z,941.91
2023-02-25T09:13:50.881Z,941.91
2023-02-25T09:14:50.892Z,941.92
2023-02-25T09:15:50.852Z,941.90
2023-02-25T09:16:50.951Z,941.90
2023-02-25T09:17:50.832Z,941.96
2023-02-25T09:18:50.847Z,941.95
2023-02-25T09:19:50.794Z,941.96
2023-02-25T09:20:50.821Z,941.99
2023-02-25T09:21:50.778Z,941.98
2023-02-25T09:22:50.754Z,941.96
2023-02-25T09:23:50.770Z,941.96
2023-02-25T09:24:50.727Z,941.94
2023-02-25T09:25:50.742Z,941.93
2023-02-25T09:26:50.708Z,941.95
2023-02-25T09:27:50.701Z,941.89
2023-02-25T09:28:50.696Z,941.85
2023-02-25T09:29:50.668Z,941.83
2023-02-25T09:30:50.742Z,941.86
2023-02-25T09:31:50.973Z,941.86
2023-02-25T09:32:50.884Z,941.93
2023-02-25T09:33:50.638Z,941.96
2023-02-25T09:34:50.597Z,941.95
2023-02-25T09:35:50.621Z,941.98
2023-02-25T09:36:50.600Z,942.00
2023-02-25T09:37:50.578Z,942.00
2023-02-25T09:38:50.544Z,942.04
2023-02-25T09:39:50.543Z,942.01
2023-02-25T09:40:50.548Z,942.02
2023-02-25T09:41:50.536Z,941.99
2023-02-25T09:42:50.511Z,942.00
2023-02-25T09:43:50.474Z,942.03
2023-02-25T09:44:50.482Z,941.97
2023-02-25T09:45:50.509Z,941.96
2023-02-25T09:46:50.464Z,941.96
2023-02-25T09:47:50.502Z,941.94
2023-02-25T09:48:50.429Z,941.94
2023-02-25T09:49:50.401Z,941.91
2023-02-25T09:50:50.394Z,941.93
2023-02-25T09:51:50.392Z,941.97
2023-02-25T09:52:50.382Z,941.96
2023-02-25T09:53:50.349Z,941.95
2023-02-25T09:54:50.337Z,941.97
2023-02-25T09:55:50.335Z,941.97
2023-02-25T09:56:50.378Z,941.94
2023-02-25T09:57:50.302Z,941.93
2023-02-25T09:58:50.344Z,941.91
2023-02-25T09:59:50.285Z,941.93
2023-02-25T10:00:50.279Z,941.92
2023-02-25T10:01:50.260Z,941.93
2023-02-25T10:02:50.493Z,941.95
2023-02-25T10:03:50.236Z,941.92
2023-02-25T10:04:50.236Z,941.99
2023-02-25T10:05:50.228Z,942.00
2023-02-25T10:06:50.208Z,941.96
2023-02-25T10:07:50.213Z,941.98
2023-02-25T10:08:50.156Z,941.93
2023-02-25T10:09:50.154Z,941.90
2023-02-25T10:10:50.171Z,941.90
2023-02-25T10:11:50.152Z,941.84
2023-02-25T10:12:50.164Z,941.83
2023-02-25T10:13:50.104Z,941.82
2023-02-25T10:14:50.117Z,941.83
2023-02-25T10:15:52.761Z,941.83
2023-02-25T10:16:50.114Z,941.82
2023-02-25T10:17:50.064Z,941.84
2023-02-25T10:18:50.027Z,941.88
2023-02-25T10:19:50.032Z,941.86
2023-02-25T10:20:50.028Z,941.89
2023-02-25T10:21:49.996Z,941.85
2023-02-25T10:22:49.987Z,941.86
2023-02-25T10:23:49.987Z,941.89
2023-02-25T10:24:49.954Z,941.90
2023-02-25T10:25:49.929Z,941.88
2023-02-25T10:26:49.926Z,941.82
2023-02-25T10:27:49.931Z,941.84
2023-02-25T10:28:49.954Z,941.85
2023-02-25T10:29:49.887Z,941.85
2023-02-25T10:30:49.976Z,941.89
2023-02-25T10:31:50.049Z,941.86
2023-02-25T10:32:49.916Z,941.87
2023-02-25T10:33:49.867Z,941.82
2023-02-25T10:34:49.810Z,941.82
2023-02-25T10:35:49.817Z,941.82
2023-02-25T10:36:49.804Z,941.80
2023-02-25T10:37:49.787Z,941.72
2023-02-25T10:38:49.890Z,941.74
2023-02-25T10:39:49.750Z,941.75
2023-02-25T10:40:49.762Z,941.74
2023-02-25T10:41:49.752Z,941.74
2023-02-25T10:42:49.729Z,941.75
2023-02-25T10:43:49.692Z,941.77
2023-02-25T10:44:49.717Z,941.73
2023-02-25T10:45:49.764Z,941.73
2023-02-25T10:46:49.658Z,941.75
2023-02-25T10:47:49.685Z,941.72
2023-02-25T10:48:49.667Z,941.71
2023-02-25T10:49:49.629Z,941.68
2023-02-25T10:50:49.601Z,941.67
2023-02-25T10:51:49.587Z,941.68
2023-02-25T10:52:49.582Z,941.68
2023-02-25T10:53:49.588Z,941.67
2023-02-25T10:54:49.546Z,941.67
2023-02-25T10:55:49.573Z,941.72
2023-02-25T10:56:49.540Z,941.78
2023-02-25T10:57:49.538Z,941.71
2023-02-25T10:58:49.528Z,941.71
2023-02-25T10:59:49.489Z,941.74
2023-02-25T11:00:49.483Z,941.73
2023-02-25T11:01:49.522Z,941.69
2023-02-25T11:02:49.494Z,941.69
2023-02-25T11:03:49.433Z,941.69
2023-02-25T11:04:49.453Z,941.71
2023-02-25T11:05:49.419Z,941.71
2023-02-25T11:06:49.409Z,941.71
2023-02-25T11:07:49.397Z,941.70
2023-02-25T11:08:49.420Z,941.65
2023-02-25T11:09:49.360Z,941.67
2023-02-25T11:10:49.425Z,941.65
2023-02-25T11:11:49.357Z,941.63
2023-02-25T11:12:49.338Z,941.63
2023-02-25T11:13:49.308Z,941.58
2023-02-25T11:14:49.338Z,941.54
2023-02-25T11:15:49.305Z,941.53
2023-02-25T11:16:49.263Z,941.52
2023-02-25T11:17:49.265Z,941.59
2023-02-25T11:18:49.264Z,941.63
2023-02-25T11:19:49.238Z,941.59
2023-02-25T11:20:49.276Z,941.60
2023-02-25T11:21:49.234Z,941.57
2023-02-25T11:22:49.202Z,941.57
2023-02-25T11:23:49.181Z,941.57
2023-02-25T11:24:49.167Z,941.56
2023-02-25T11:25:49.144Z,941.49
2023-02-25T11:26:49.148Z,941.51
2023-02-25T11:27:49.163Z,941.50
2023-02-25T11:28:49.109Z,941.48
2023-02-25T11:29:49.129Z,941.50
2023-02-25T11:30:49.216Z,941.53
2023-02-25T11:31:49.373Z,941.55
2023-02-25T11:32:49.142Z,941.54
2023-02-25T11:33:49.055Z,941.51
2023-02-25T11:34:49.067Z,941.50
2023-02-25T11:35:49.024Z,941.50
2023-02-25T11:36:50.945Z,941.51
2023-02-25T11:37:49.000Z,941.47
2023-02-25T11:38:48.978Z,941.44
2023-02-25T11:39:49.007Z,941.38
2023-02-25T11:40:48.949Z,941.42
2023-02-25T11:41:48.951Z,941.41
2023-02-25T11:42:48.914Z,941.45
2023-02-25T11:43:48.940Z,941.43
2023-02-25T11:44:48.894Z,941.43
2023-02-25T11:45:48.899Z,941.37
2023-02-25T11:46:48.935Z,941.34
2023-02-25T11:47:48.850Z,941.37
2023-02-25T11:48:48.869Z,941.36
2023-02-25T11:49:48.838Z,941.41
2023-02-25T11:50:48.841Z,941.39
2023-02-25T11:51:48.833Z,941.41
2023-02-25T11:52:48.815Z,941.32
2023-02-25T11:53:48.807Z,941.34
2023-02-25T11:54:48.768Z,941.33
2023-02-25T11:55:48.781Z,941.32
2023-02-25T11:56:48.820Z,941.32
2023-02-25T11:57:48.722Z,941.35
2023-02-25T11:58:48.743Z,941.32
2023-02-25T11:59:48.733Z,941.33
2023-02-25T12:00:48.725Z,941.29
2023-02-25T12:01:48.696Z,941.27
2023-02-25T12:02:48.722Z,941.26
2023-02-25T12:03:48.637Z,941.25
2023-02-25T12:04:48.664Z,941.31
2023-02-25T12:05:48.681Z,941.26
2023-02-25T12:06:48.618Z,941.28
2023-02-25T12:08:05.100Z,941.23
2023-02-25T12:08:48.590Z,941.18
2023-02-25T12:09:48.579Z,941.23
2023-02-25T12:10:48.576Z,941.26
2023-02-25T12:11:48.552Z,941.25
2023-02-25T12:12:48.542Z,941.27
2023-02-25T12:13:48.586Z,941.22
2023-02-25T12:14:48.530Z,941.26
2023-02-25T12:15:48.534Z,941.21
2023-02-25T12:16:48.467Z,941.24
2023-02-25T12:17:48.486Z,941.27
2023-02-25T12:18:48.473Z,941.20
2023-02-25T12:19:48.447Z,941.23
2023-02-25T12:20:48.423Z,941.26
2023-02-25T12:21:48.420Z,941.26
2023-02-25T12:22:48.411Z,941.25
2023-02-25T12:23:48.387Z,941.23
2023-02-25T12:24:48.374Z,941.23
2023-02-25T12:25:48.370Z,941.25
2023-02-25T12:26:48.334Z,941.26
2023-02-25T12:27:48.373Z,941.29
2023-02-25T12:28:49.827Z,941.27